Jeromesville, Ohio
Current Conditions -  °F | °C
As of 2:52 PM on Thursday 23 Oct 2014 (Local Time) from KMFD Reporting Station
Clear Clear  
Wind Chill: 56°   Ceiling: Unl
Heat Index: 56°   Visibility: 10mi
Dew Point: 42°   Wind: 5mph
Humidity: 60%   Direction: NA
Pressure: 30.16"   Gusts: NA
Location:  40.8°N, 82.2°W
Report Text: KMFD 231852Z VRB04KT 10SM CLR 13/06 A3016 RMK AO2 SLP215 T01330056
Loading
Personal Weather Stations






























Interactive Weather Map
Tropical Storm Tracking
New forecast layout! Learn more

10-Day Weather Forecast

Advertisements
Track Severe Weather on mobile